Date,TemperatureHighF,TemperatureAvgF,TemperatureLowF,DewpointHighF,DewpointAvgF,DewpointLowF,HumidityHigh,HumidityAvg,HumidityLow,PressureMaxIn,PressureMinIn,WindSpeedMaxMPH,WindSpeedAvgMPH,GustSpeedMaxMPH,PrecipitationSumIn
2014-1-1,15.3,10.1,5.0,7.6,3.8,0.7,84,75,68,30.36,30.06,10,4,0,0.00
2014-1-2,19.4,14.1,9.7,10.4,8.2,4.8,84,77,67,30.36,30.25,7,3,0,0.00
2014-1-3,40.8,25.5,8.8,29.9,18.9,4.2,83,76,64,30.25,29.57,14,7,0,0.03
2014-1-4,38.3,23.2,9.9,31.5,13.9,-0.2,83,68,57,30.22,29.66,12,6,0,0.00
2014-1-5,13.1,3.4,-8.0,0.3,-10.0,-22.5,65,53,39,30.51,30.23,10,6,0,0.00
2014-1-6,12.6,0.4,-9.8,-6.3,-14.2,-22.5,64,50,33,30.48,30.17,15,4,0,0.00
2014-1-7,49.5,25.4,7.0,22.4,10.2,-5.7,72,54,31,30.18,29.97,8,3,0,0.00
2014-1-8,23.0,18.3,14.0,14.9,13.0,9.8,84,80,67,30.31,30.18,8,3,0,0.00
2014-1-9,33.6,20.8,12.4,26.0,16.6,8.5,87,84,72,30.25,29.84,12,5,0,0.01
2014-1-10,40.3,32.1,26.1,34.1,28.5,22.5,96,87,71,29.82,29.56,12,3,0,0.06
2014-1-11,51.8,38.0,25.0,29.7,25.2,21.1,86,62,35,29.88,29.67,11,4,0,0.00
2014-1-12,52.7,42.5,36.1,31.5,26.6,23.1,60,53,44,29.77,29.52,9,3,0,0.00
2014-1-13,51.8,38.3,24.3,28.6,23.6,18.4,83,58,27,29.90,29.75,11,3,0,0.00
2014-1-14,46.8,36.0,25.2,31.9,16.6,3.8,68,47,21,30.26,29.76,17,8,0,0.00
2014-1-15,49.3,33.5,14.0,31.0,20.8,9.0,81,62,39,30.25,29.81,11,3,0,0.00
2014-1-16,45.1,36.0,21.6,26.9,15.9,6.1,57,44,29,30.15,29.84,19,10,0,0.01
2014-1-17,42.8,27.8,10.8,19.0,12.4,4.9,86,54,32,30.16,29.83,9,4,0,0.00
2014-1-18,42.4,35.8,22.1,25.5,21.9,16.3,78,57,49,30.11,29.79,22,7,0,0.00
2014-1-19,68.0,41.2,22.8,24.8,16.6,11.6,78,44,12,30.04,29.77,11,4,0,0.00
2014-1-20,48.2,28.5,5.7,23.3,12.6,-4.1,72,53,29,30.47,29.88,18,6,0,0.00
2014-1-21,31.5,13.6,-1.3,11.0,0.7,-7.8,76,58,35,30.48,29.98,14,4,0,0.00
2014-1-22,35.2,20.5,0.1,21.4,8.7,-11.0,83,61,40,30.57,30.08,14,5,0,0.00
2014-1-23,20.7,6.4,-6.7,-1.4,-10.9,-14.2,69,47,23,30.76,30.39,11,4,0,0.00
2014-1-24,55.2,34.8,10.4,32.7,17.6,0.2,69,51,33,30.37,29.82,15,6,0,0.00
2014-1-25,48.4,42.8,37.0,34.6,30.4,26.4,76,62,49,30.07,29.67,12,5,0,0.00
2014-1-26,58.3,36.2,7.9,30.3,17.9,-9.4,70,48,29,30.31,29.67,22,7,0,0.00
2014-1-27,16.5,5.3,-4.4,-7.1,-11.3,-14.7,73,47,26,30.43,30.32,14,3,0,0.00
2014-1-28,24.8,9.3,-3.6,-0.5,-5.9,-11.6,71,51,31,30.39,30.16,9,2,0,0.00
2014-1-29,50.4,27.9,5.4,18.9,4.1,-5.3,65,41,15,30.16,29.53,16,6,0,0.00
2014-1-30,40.8,31.3,19.8,25.7,13.6,9.7,80,49,32,30.03,29.43,16,5,0,0.00
2014-1-31,28.0,20.0,15.1,15.1,13.2,11.2,84,75,56,30.10,29.92,7,2,0,0.00
2014-2-1,28.9,18.8,2.1,15.8,10.0,-2.4,84,69,47,30.27,29.90,11,3,0,0.00
2014-2-2,27.5,10.9,-6.5,13.9,2.8,-10.8,83,71,48,30.29,30.16,11,3,0,0.00
2014-2-3,29.5,19.1,5.5,16.6,10.3,1.5,83,69,51,30.18,30.08,7,3,0,0.00
2014-2-4,23.7,13.8,2.7,15.5,8.0,-2.6,80,77,67,30.42,30.15,16,6,0,0.00
2014-2-5,11.5,2.5,-8.5,-1.4,-6.4,-14.8,80,67,47,30.59,30.43,9,4,0,0.00
2014-2-6,9.9,-2.3,-15.5,-5.0,-11.7,-20.7,77,64,47,30.58,30.31,7,3,0,0.00
2014-2-7,14.7,8.7,2.3,5.5,1.1,-5.0,80,71,60,30.30,30.01,10,5,0,0.00
2014-2-8,28.8,18.5,10.4,14.2,10.2,5.5,83,71,49,30.21,29.95,9,4,0,0.01
2014-2-9,16.3,12.6,8.6,12.1,5.9,1.0,84,74,63,30.38,30.21,6,3,0,0.00
2014-2-10,16.3,10.4,5.5,4.4,1.9,-1.0,76,68,55,30.40,30.32,7,2,0,0.01
2014-2-11,25.3,17.3,9.7,17.6,10.6,3.6,79,74,67,30.35,29.98,14,6,0,0.00
2014-2-12,33.6,28.2,20.5,28.8,21.3,16.3,86,75,58,30.12,29.80,11,5,0,0.04
2014-2-13,54.1,39.3,25.0,34.2,28.5,20.9,84,67,45,29.83,29.61,14,3,0,0.03
2014-2-14,36.9,28.9,21.4,30.1,21.7,18.4,88,75,59,30.04,29.64,10,3,0,0.00
2014-2-15,57.2,38.8,25.9,35.4,25.0,20.3,82,62,25,30.10,29.80,14,5,0,0.00
2014-2-16,43.3,32.5,23.2,32.3,27.3,20.7,94,82,62,30.11,29.77,12,4,0,0.00
2014-2-17,58.1,43.9,32.7,33.4,23.7,13.4,87,52,17,30.00,29.77,11,5,0,0.00
2014-2-18,66.4,45.5,28.0,27.1,20.8,16.4,67,41,15,30.00,29.67,14,4,0,0.00
2014-2-19,54.7,38.5,22.8,26.1,21.4,16.7,79,54,27,30.00,29.57,17,4,0,0.00
2014-2-20,45.9,34.9,21.2,31.7,21.7,12.5,95,61,29,29.85,29.58,20,6,0,0.06
2014-2-21,55.0,34.9,19.0,23.4,16.6,11.3,78,52,19,29.87,29.77,11,3,0,0.00
2014-2-22,42.1,33.6,27.7,25.2,19.4,11.9,75,57,42,30.19,29.86,9,3,0,0.00
2014-2-23,32.0,26.0,21.2,14.9,10.5,6.1,66,52,39,30.32,30.17,8,3,0,0.00
2014-2-24,30.7,23.2,12.4,20.1,16.7,6.3,85,77,53,30.36,30.09,13,4,0,0.00
2014-2-25,17.1,11.4,5.4,9.1,2.5,-2.0,77,67,55,30.45,30.33,10,4,0,0.00
2014-2-26,39.0,19.0,-0.2,15.3,6.6,-5.4,79,61,28,30.43,29.94,16,4,0,0.00
2014-2-27,29.5,18.1,4.5,11.4,3.9,-1.6,77,55,37,30.08,29.78,11,5,0,0.00
2014-2-28,37.8,22.6,14.5,21.2,11.0,0.2,79,61,46,30.15,29.69,11,4,0,0.00
2014-3-1,16.2,6.6,-1.3,7.2,-1.8,-10.0,74,68,64,30.46,30.14,14,6,0,0.00
2014-3-2,7.3,-0.9,-6.5,-10.0,-12.9,-16.9,69,56,42,30.52,30.42,10,4,0,0.00
2014-3-3,28.0,11.2,-6.0,4.9,-6.0,-14.3,72,48,26,30.48,30.05,19,6,0,0.00
2014-3-4,48.7,29.2,11.8,22.9,14.4,4.8,75,55,34,30.07,29.86,10,3,0,0.00
2014-3-5,36.1,25.0,18.5,18.2,14.0,11.2,75,63,46,30.25,30.08,7,3,0,0.00
2014-3-6,50.4,35.1,19.6,33.2,25.3,14.4,82,69,45,30.20,29.76,14,7,0,0.00
2014-3-7,43.2,33.4,24.4,34.9,26.2,17.1,96,76,51,30.20,29.75,14,5,0,0.00
2014-3-8,45.9,29.3,16.9,25.0,18.2,12.6,83,65,34,30.33,30.21,7,3,0,0.00
2014-3-9,75.2,50.7,29.7,31.4,23.9,18.7,76,43,12,30.20,29.84,14,5,0,0.00
2014-3-10,76.6,56.4,40.8,33.7,27.8,21.2,58,36,16,29.87,29.60,10,3,0,0.00
2014-3-11,56.1,41.6,32.9,35.5,29.7,22.6,80,64,35,30.17,29.46,19,6,0,0.01
2014-3-12,59.9,39.9,24.4,31.2,21.4,11.3,87,55,16,30.20,30.06,13,4,0,0.00
2014-3-13,69.4,48.4,25.5,27.9,16.9,4.0,73,36,8,30.09,29.67,12,4,0,0.00
2014-3-14,63.0,49.8,38.8,27.0,19.7,11.2,60,33,13,29.99,29.67,9,4,0,0.00
2014-3-15,62.1,45.1,28.9,28.7,21.7,17.0,75,41,23,30.25,29.78,12,7,0,0.00
2014-3-16,45.3,32.7,21.0,21.9,17.9,14.0,77,56,34,30.36,30.00,12,3,0,0.00
2014-3-17,65.8,46.8,30.9,28.0,22.1,13.6,56,39,22,29.99,29.36,14,7,0,0.00
2014-3-18,49.3,38.3,29.8,32.2,28.0,23.1,95,68,44,29.94,29.38,16,6,0,0.00
2014-3-19,55.9,38.6,25.0,34.5,27.2,22.5,91,68,30,30.12,29.95,10,4,0,0.05
2014-3-20,67.6,45.7,22.5,28.3,20.1,8.9,84,44,11,30.02,29.79,7,2,0,0.00
2014-3-21,58.1,43.3,29.8,28.5,24.1,14.5,71,49,27,30.26,29.78,15,6,0,0.00
2014-3-22,29.7,25.0,17.2,20.4,14.8,6.8,81,66,39,30.50,30.26,14,5,0,0.00
2014-3-23,38.8,25.0,9.1,19.7,13.3,5.5,85,64,40,30.51,30.17,12,3,0,0.00
2014-3-24,44.6,33.9,24.4,24.2,17.1,12.8,70,51,32,30.26,30.15,12,4,0,0.00
2014-3-25,43.2,31.6,16.9,17.7,12.0,9.4,73,46,25,30.38,30.05,9,4,0,0.00
2014-3-26,66.0,43.6,28.6,40.7,27.5,11.1,93,55,32,30.05,29.49,24,10,0,0.01
2014-3-27,44.1,37.8,27.9,43.0,35.3,25.4,96,91,77,29.91,29.34,17,6,0,0.18
2014-3-28,50.7,33.5,22.6,30.9,24.8,19.9,92,73,44,30.24,29.91,10,2,0,0.00
2014-3-29,62.4,39.9,17.2,32.2,24.8,14.5,94,61,27,30.27,29.97,14,5,0,0.00
2014-3-30,75.6,60.0,46.6,37.9,31.2,27.0,47,35,19,29.97,29.53,14,7,0,0.00
2014-3-31,64.6,46.2,28.2,40.0,27.0,12.7,67,48,32,30.04,29.37,17,10,0,0.00
2014-4-1,44.8,32.1,20.7,23.1,18.6,14.1,75,58,42,30.11,29.99,10,3,0,0.00
2014-4-2,42.1,35.9,28.9,35.8,26.3,19.0,94,68,52,30.03,29.79,11,5,0,0.00
2014-4-3,37.4,35.3,32.2,36.4,34.2,31.2,96,96,91,29.97,29.77,9,5,0,0.19
2014-4-4,54.1,38.7,30.9,31.7,28.4,24.1,91,69,33,30.14,29.97,14,5,0,0.13
2014-4-5,65.8,48.3,31.6,32.1,28.4,26.2,81,51,23,30.08,29.88,20,7,0,0.00
2014-4-6,66.7,54.1,44.2,43.7,38.2,28.6,94,57,35,29.93,29.77,13,6,0,0.19
2014-4-7,60.1,46.4,36.1,45.5,38.9,32.9,96,77,45,30.04,29.83,12,4,0,0.12
2014-4-8,62.6,47.7,34.7,34.2,27.8,21.0,85,51,21,30.14,30.03,9,3,0,0.00
2014-4-9,83.7,59.3,39.0,39.2,29.8,21.1,54,36,13,30.05,29.64,11,4,0,0.00
2014-4-10,68.2,57.4,46.8,38.2,31.2,24.1,65,39,22,30.02,29.64,14,4,0,0.00
2014-4-11,76.6,59.7,38.1,35.5,30.9,25.8,65,36,20,30.06,29.77,10,4,0,0.00
2014-4-12,77.2,65.7,54.0,57.6,47.7,35.1,81,54,36,29.77,29.58,12,4,0,0.00
2014-4-13,58.6,39.5,29.7,40.7,33.7,26.6,96,82,45,30.06,29.67,16,8,0,0.38
2014-4-14,46.4,33.4,25.3,29.9,22.7,17.5,84,66,44,30.25,30.05,12,5,0,0.29
2014-4-15,63.1,42.5,21.0,29.6,24.8,18.8,93,56,21,30.19,29.73,19,6,0,0.00
2014-4-16,60.8,46.6,33.3,40.3,27.7,22.0,72,49,34,30.15,29.63,14,8,0,0.00
2014-4-17,48.4,35.0,30.2,29.2,24.8,23.1,75,67,45,30.31,30.17,9,4,0,0.00
2014-4-18,69.8,66.6,58.3,46.3,43.8,42.2,55,44,39,30.11,29.98,19,11,0,0.00
2014-4-19,72.9,62.4,52.5,51.2,47.7,41.9,69,59,46,30.02,29.93,11,5,0,0.00
2014-4-20,78.6,65.7,48.7,58.2,52.4,45.3,89,64,44,29.99,29.89,8,3,0,0.01
2014-4-21,72.9,59.6,46.6,55.4,37.0,20.9,93,51,14,30.17,29.95,7,2,0,0.04
2014-4-22,72.3,55.6,35.8,36.9,32.4,28.1,81,46,24,30.17,29.87,12,5,0,0.00
2014-4-23,79.3,61.1,51.6,57.2,45.9,32.3,96,59,39,29.86,29.50,18,8,0,0.70
2014-4-24,74.7,58.1,44.4,54.7,38.5,19.5,96,58,14,29.85,29.64,12,4,0,0.74
2014-4-25,78.4,59.1,37.9,44.6,37.8,33.2,83,51,20,29.85,29.75,13,3,0,0.00
2014-4-26,81.9,65.0,46.8,60.2,50.0,41.0,81,60,39,29.75,29.39,19,5,0,0.00
2014-4-27,76.3,67.2,50.4,61.5,52.3,30.8,84,62,21,29.39,29.17,19,7,0,0.02
2014-4-28,53.4,45.2,37.8,46.0,40.8,35.4,93,84,75,29.55,29.21,19,7,0,0.11
2014-4-29,42.6,39.0,36.3,39.9,36.9,35.0,96,92,85,29.97,29.55,16,8,0,0.37
2014-4-30,53.1,44.8,36.5,37.3,31.3,24.1,89,62,34,30.04,29.98,19,8,0,0.00
2014-5-1,59.7,47.6,37.4,36.7,32.1,28.1,79,58,32,30.03,29.99,12,5,0,0.01
2014-5-2,77.5,54.7,32.9,44.7,35.7,26.7,80,54,23,30.02,29.80,8,3,0,0.00
2014-5-3,80.6,59.1,40.5,45.8,41.7,35.8,85,56,26,29.97,29.87,7,1,0,0.00
2014-5-4,72.0,57.7,46.9,47.0,42.7,38.1,78,59,39,29.91,29.77,11,4,0,0.01
2014-5-5,74.1,58.2,42.1,48.3,43.5,37.8,87,61,37,29.89,29.77,11,4,0,0.00
2014-5-6,85.8,65.0,43.3,61.1,51.0,39.2,94,63,41,29.77,29.51,8,3,0,0.00
2014-5-7,85.8,66.8,51.1,60.9,55.2,50.0,96,69,39,29.65,29.48,8,3,0,0.00
2014-5-8,73.9,58.6,46.4,64.9,49.2,36.9,93,72,47,29.89,29.57,14,5,0,0.17
2014-5-9,73.6,56.4,37.8,43.2,38.1,33.4,84,54,26,29.93,29.77,8,4,0,0.00
2014-5-10,81.1,66.3,51.4,48.2,41.0,33.8,71,43,20,29.81,29.73,11,4,0,0.00
2014-5-11,61.0,56.0,49.8,54.5,49.3,37.6,94,81,42,29.82,29.60,14,5,0,0.26
2014-5-12,47.7,43.7,41.9,46.1,40.0,35.4,96,87,70,30.14,29.81,14,7,0,0.06
2014-5-13,64.9,49.7,35.1,36.3,32.0,27.4,85,55,25,30.31,30.13,10,4,0,0.00
2014-5-14,69.4,51.4,30.7,42.2,32.5,26.1,92,54,24,30.31,30.14,10,3,0,0.04
2014-5-15,61.3,46.6,28.9,33.2,27.1,23.0,87,51,24,30.24,30.13,8,2,0,0.00
2014-5-16,53.1,41.7,30.4,40.7,33.4,25.0,96,73,49,30.16,30.05,7,2,0,0.06
2014-5-17,64.6,48.1,29.8,45.8,37.8,28.8,96,71,43,30.17,30.07,10,2,0,0.01
2014-5-18,75.0,59.7,41.0,53.5,45.5,37.0,86,62,42,30.12,29.80,14,5,0,0.00
2014-5-19,91.9,72.2,60.8,62.4,58.8,53.6,85,66,35,29.79,29.60,12,5,0,0.00
2014-5-20,85.5,73.5,61.0,57.7,53.6,47.7,85,52,33,29.92,29.72,14,5,0,0.00
2014-5-21,82.4,68.3,53.8,51.7,47.9,44.5,71,50,31,30.09,29.91,12,4,0,0.00
2014-5-22,77.5,65.6,55.0,61.7,56.2,44.0,93,73,51,30.17,30.07,6,3,0,0.18
2014-5-23,77.9,67.7,55.8,63.0,58.9,54.7,96,76,51,30.16,30.05,9,3,0,0.01
2014-5-24,81.3,70.4,62.1,67.2,62.0,59.4,96,77,51,30.08,29.94,12,4,0,0.19
2014-5-25,82.2,69.9,61.9,70.6,65.4,60.7,96,87,63,30.00,29.87,8,2,0,0.27
2014-5-26,87.6,77.5,59.7,65.7,60.4,57.3,96,59,36,29.96,29.86,11,4,0,0.00
2014-5-27,96.1,76.5,61.0,60.2,56.8,52.3,82,54,26,29.96,29.89,7,2,0,0.00
2014-5-28,91.2,69.9,59.0,65.8,59.4,56.2,96,73,31,30.02,29.95,8,1,0,0.00
2014-5-29,90.9,77.5,62.8,65.4,60.6,55.9,88,59,33,30.03,29.93,8,2,0,0.00
2014-5-30,87.8,78.0,59.7,67.3,62.4,58.5,96,61,42,30.04,29.94,10,3,0,0.00
2014-5-31,84.4,75.7,66.6,68.2,63.6,61.0,85,67,49,30.04,29.86,14,4,0,0.00
2014-6-1,86.4,70.2,61.3,67.5,62.9,58.6,96,79,51,29.91,29.63,13,4,0,0.43
2014-6-2,90.7,69.6,56.1,62.1,57.5,53.7,96,70,29,29.99,29.82,6,2,0,0.00
2014-6-3,90.0,70.1,58.6,72.1,61.1,55.1,96,75,49,30.03,29.59,16,5,0,1.09
2014-6-4,80.2,67.6,59.4,65.7,61.7,58.3,96,83,58,29.92,29.76,10,3,0,0.21
2014-6-5,88.9,70.8,60.8,68.5,62.6,58.7,96,78,40,29.93,29.83,5,1,0,0.00
2014-6-6,85.5,72.7,57.7,69.0,59.9,52.3,96,68,39,29.97,29.83,7,2,0,0.09
2014-6-7,66.9,61.2,53.2,60.1,56.5,52.1,96,85,72,30.10,29.91,9,4,0,0.60
2014-6-8,71.1,62.4,51.6,60.3,55.5,50.5,96,79,60,30.11,29.90,8,3,0,0.00
2014-6-9,65.5,61.5,56.7,60.8,58.2,53.8,96,89,82,29.99,29.86,11,4,0,0.00
2014-6-10,81.9,65.8,53.8,62.7,56.1,52.7,96,74,41,29.97,29.83,5,2,0,0.00
2014-6-11,85.3,71.8,59.4,67.1,59.4,54.2,86,66,51,29.94,29.73,13,5,0,0.00
2014-6-12,76.8,63.8,50.5,55.5,47.9,40.0,83,59,29,30.11,29.93,10,4,0,0.00
2014-6-13,79.2,64.3,43.9,53.6,46.7,38.8,96,57,36,30.11,29.79,14,5,0,0.00
2014-6-14,91.4,74.2,62.2,69.6,61.6,53.2,96,67,39,29.80,29.49,15,7,0,1.35
2014-6-15,85.5,68.1,56.3,61.9,57.0,51.5,96,72,37,29.92,29.59,11,3,0,1.23
2014-6-16,89.2,76.6,64.6,75.4,68.6,55.7,96,78,59,29.92,29.57,19,7,0,0.00
2014-6-17,95.4,81.5,71.4,73.1,69.9,67.0,92,70,40,29.69,29.62,14,5,0,0.00
2014-6-18,95.0,84.6,75.7,70.3,65.6,55.9,79,56,32,29.79,29.64,15,6,0,0.00
2014-6-19,91.0,73.1,60.1,62.9,60.2,57.6,96,68,33,30.03,29.84,8,2,0,0.04
2014-6-20,92.1,75.1,59.4,73.8,66.3,57.7,96,76,54,30.02,29.85,9,4,0,0.79
2014-6-21,85.1,74.6,63.1,68.6,65.3,61.9,96,75,53,29.97,29.82,7,1,0,0.17
2014-6-22,83.3,72.5,64.8,68.8,65.5,63.6,96,80,55,29.94,29.81,3,1,0,0.00
2014-6-23,75.0,66.4,64.2,64.6,62.7,59.2,96,89,58,30.02,29.91,2,0,0,0.04
2014-6-24,82.8,70.2,60.8,66.3,62.8,59.7,96,79,51,30.05,29.98,8,0,0,0.00
2014-6-25,84.9,73.5,61.0,67.1,63.8,59.8,96,74,50,30.03,29.90,6,1,0,0.00
2014-6-26,76.8,71.1,67.5,66.0,64.6,63.6,91,80,66,29.94,29.77,5,0,0,0.00
2014-6-27,81.3,72.1,62.8,76.3,69.2,61.1,96,91,72,29.78,29.60,7,1,0,0.65
2014-6-28,85.3,71.8,61.7,66.9,63.2,60.5,96,77,49,29.82,29.68,12,2,0,0.34
2014-6-29,88.2,73.8,67.1,74.0,69.7,65.9,96,88,62,29.90,29.77,4,0,0,0.01
2014-6-30,82.2,76.9,70.5,75.8,67.5,55.7,96,76,42,29.80,29.60,9,4,0,0.02
2014-7-1,81.5,69.3,56.1,59.3,54.2,51.0,84,60,42,30.08,29.94,12,3,0,0.00
2014-7-2,81.0,62.7,49.6,53.3,49.5,46.6,95,66,30,30.23,30.08,9,2,0,0.00
2014-7-3,83.7,68.1,53.1,61.4,54.6,47.8,83,64,44,30.21,30.10,8,1,0,0.00
2014-7-4,84.9,73.6,62.6,66.3,60.1,54.6,75,63,51,30.18,30.01,14,2,0,0.00
2014-7-5,90.3,72.3,68.2,73.0,66.2,62.0,91,82,57,30.01,29.91,0,0,0,0.00
2014-7-6,95.2,84.3,65.8,75.6,69.5,63.1,96,64,42,29.93,29.86,6,1,0,0.00
2014-7-7,87.6,76.4,62.8,67.9,62.7,57.0,96,66,37,29.95,29.82,7,1,0,0.15
2014-7-8,86.2,70.6,57.4,63.4,58.1,53.7,96,69,34,30.07,29.96,9,2,0,0.01
2014-7-9,82.2,68.3,54.1,63.3,58.5,52.4,96,74,43,30.09,29.91,12,1,0,0.72
2014-7-10,86.0,74.2,63.3,70.1,65.7,62.1,96,77,57,30.00,29.90,9,2,0,0.00
2014-7-11,76.5,71.0,69.1,69.5,65.7,64.3,89,83,76,30.01,29.93,7,1,0,0.00